sensor_id;sensor_type;location;lat;lon;timestamp;temperature;humidity
10123;DHT22;5101;49.038;8.710;2022-07-06T00:01:23;19.30;79.80
10123;DHT22;5101;49.038;8.710;2022-07-06T00:03:49;19.20;80.20
10123;DHT22;5101;49.038;8.710;2022-07-06T00:06:15;19.20;80.40
10123;DHT22;5101;49.038;8.710;2022-07-06T00:08:42;19.10;80.50
10123;DHT22;5101;49.038;8.710;2022-07-06T00:11:08;19.00;80.60
10123;DHT22;5101;49.038;8.710;2022-07-06T00:13:34;19.00;80.70
10123;DHT22;5101;49.038;8.710;2022-07-06T00:15:59;18.90;80.50
10123;DHT22;5101;49.038;8.710;2022-07-06T00:18:25;18.90;80.50
10123;DHT22;5101;49.038;8.710;2022-07-06T00:20:50;18.80;80.40
10123;DHT22;5101;49.038;8.710;2022-07-06T00:23:16;18.80;81.10
10123;DHT22;5101;49.038;8.710;2022-07-06T00:25:42;18.80;81.90
10123;DHT22;5101;49.038;8.710;2022-07-06T00:28:08;18.80;82.50
10123;DHT22;5101;49.038;8.710;2022-07-06T00:30:33;18.70;83.10
10123;DHT22;5101;49.038;8.710;2022-07-06T00:32:59;18.60;83.20
10123;DHT22;5101;49.038;8.710;2022-07-06T00:35:25;18.50;84.20
10123;DHT22;5101;49.038;8.710;2022-07-06T00:37:51;18.40;83.90
10123;DHT22;5101;49.038;8.710;2022-07-06T00:40:17;18.40;84.70
10123;DHT22;5101;49.038;8.710;2022-07-06T00:42:44;18.40;85.90
10123;DHT22;5101;49.038;8.710;2022-07-06T00:45:12;18.30;86.30
10123;DHT22;5101;49.038;8.710;2022-07-06T00:47:38;18.30;86.70
10123;DHT22;5101;49.038;8.710;2022-07-06T00:50:05;18.20;87.10
10123;DHT22;5101;49.038;8.710;2022-07-06T00:52:45;18.20;86.90
10123;DHT22;5101;49.038;8.710;2022-07-06T00:55:11;18.20;87.10
10123;DHT22;5101;49.038;8.710;2022-07-06T00:57:38;18.20;87.10
10123;DHT22;5101;49.038;8.710;2022-07-06T01:00:06;18.20;87.20
10123;DHT22;5101;49.038;8.710;2022-07-06T01:02:33;18.20;87.90
10123;DHT22;5101;49.038;8.710;2022-07-06T01:05:00;18.10;88.40
10123;DHT22;5101;49.038;8.710;2022-07-06T01:07:25;18.00;89.30
10123;DHT22;5101;49.038;8.710;2022-07-06T01:09:51;18.00;89.20
10123;DHT22;5101;49.038;8.710;2022-07-06T01:12:17;17.90;89.00
10123;DHT22;5101;49.038;8.710;2022-07-06T01:14:43;17.90;89.00
10123;DHT22;5101;49.038;8.710;2022-07-06T01:17:09;17.80;89.30
10123;DHT22;5101;49.038;8.710;2022-07-06T01:19:35;17.80;89.90
10123;DHT22;5101;49.038;8.710;2022-07-06T01:22:00;17.80;90.10
10123;DHT22;5101;49.038;8.710;2022-07-06T01:24:26;17.80;90.10
10123;DHT22;5101;49.038;8.710;2022-07-06T01:26:52;17.70;90.10
10123;DHT22;5101;49.038;8.710;2022-07-06T01:29:18;17.70;90.00
10123;DHT22;5101;49.038;8.710;2022-07-06T01:31:48;17.60;90.00
10123;DHT22;5101;49.038;8.710;2022-07-06T01:34:15;17.60;90.40
10123;DHT22;5101;49.038;8.710;2022-07-06T01:36:41;17.60;90.50
10123;DHT22;5101;49.038;8.710;2022-07-06T01:39:08;17.60;90.60
10123;DHT22;5101;49.038;8.710;2022-07-06T01:41:34;17.50;90.80
10123;DHT22;5101;49.038;8.710;2022-07-06T01:43:59;17.50;90.90
10123;DHT22;5101;49.038;8.710;2022-07-06T01:46:25;17.50;91.40
10123;DHT22;5101;49.038;8.710;2022-07-06T01:48:50;17.40;91.70
10123;DHT22;5101;49.038;8.710;2022-07-06T01:51:16;17.40;91.70
10123;DHT22;5101;49.038;8.710;2022-07-06T01:53:42;17.30;91.70
10123;DHT22;5101;49.038;8.710;2022-07-06T01:56:08;17.30;91.60
10123;DHT22;5101;49.038;8.710;2022-07-06T01:58:34;17.30;91.50
10123;DHT22;5101;49.038;8.710;2022-07-06T02:00:59;17.30;91.60
10123;DHT22;5101;49.038;8.710;2022-07-06T02:03:25;17.20;91.60
10123;DHT22;5101;49.038;8.710;2022-07-06T02:05:51;17.20;91.80
10123;DHT22;5101;49.038;8.710;2022-07-06T02:08:17;17.20;92.10
10123;DHT22;5101;49.038;8.710;2022-07-06T02:10:43;17.10;92.30
10123;DHT22;5101;49.038;8.710;2022-07-06T02:13:08;17.10;92.40
10123;DHT22;5101;49.038;8.710;2022-07-06T02:15:34;17.00;92.60
10123;DHT22;5101;49.038;8.710;2022-07-06T02:17:59;17.00;92.70
10123;DHT22;5101;49.038;8.710;2022-07-06T02:20:25;16.90;92.80
10123;DHT22;5101;49.038;8.710;2022-07-06T02:22:50;16.90;92.80
10123;DHT22;5101;49.038;8.710;2022-07-06T02:25:16;16.90;92.80
10123;DHT22;5101;49.038;8.710;2022-07-06T02:27:41;16.80;92.90
10123;DHT22;5101;49.038;8.710;2022-07-06T02:30:07;16.80;93.10
10123;DHT22;5101;49.038;8.710;2022-07-06T02:32:33;16.70;93.00
10123;DHT22;5101;49.038;8.710;2022-07-06T02:34:58;16.70;93.10
10123;DHT22;5101;49.038;8.710;2022-07-06T02:37:24;16.70;93.20
10123;DHT22;5101;49.038;8.710;2022-07-06T02:39:49;16.70;93.40
10123;DHT22;5101;49.038;8.710;2022-07-06T02:42:15;16.60;93.70
10123;DHT22;5101;49.038;8.710;2022-07-06T02:44:41;16.60;93.90
10123;DHT22;5101;49.038;8.710;2022-07-06T02:47:06;16.60;94.30
10123;DHT22;5101;49.038;8.710;2022-07-06T02:49:32;16.60;94.30
10123;DHT22;5101;49.038;8.710;2022-07-06T02:51:57;16.50;94.40
10123;DHT22;5101;49.038;8.710;2022-07-06T02:54:23;16.50;94.60
10123;DHT22;5101;49.038;8.710;2022-07-06T02:56:48;16.40;94.60
10123;DHT22;5101;49.038;8.710;2022-07-06T02:59:17;16.40;94.70
10123;DHT22;5101;49.038;8.710;2022-07-06T03:01:43;16.40;94.80
10123;DHT22;5101;49.038;8.710;2022-07-06T03:04:08;16.40;95.00
10123;DHT22;5101;49.038;8.710;2022-07-06T03:06:34;16.30;95.20
10123;DHT22;5101;49.038;8.710;2022-07-06T03:08:59;16.30;95.40
10123;DHT22;5101;49.038;8.710;2022-07-06T03:11:26;16.30;95.90
10123;DHT22;5101;49.038;8.710;2022-07-06T03:13:51;16.30;96.20
10123;DHT22;5101;49.038;8.710;2022-07-06T03:16:17;16.20;96.30
10123;DHT22;5101;49.038;8.710;2022-07-06T03:18:42;16.20;96.20
10123;DHT22;5101;49.038;8.710;2022-07-06T03:21:08;16.20;96.10
10123;DHT22;5101;49.038;8.710;2022-07-06T03:23:33;16.20;96.30
10123;DHT22;5101;49.038;8.710;2022-07-06T03:26:00;16.10;96.50
10123;DHT22;5101;49.038;8.710;2022-07-06T03:28:25;16.10;96.80
10123;DHT22;5101;49.038;8.710;2022-07-06T03:30:51;16.00;96.80
10123;DHT22;5101;49.038;8.710;2022-07-06T03:33:16;16.00;96.80
10123;DHT22;5101;49.038;8.710;2022-07-06T03:35:42;16.00;96.90
10123;DHT22;5101;49.038;8.710;2022-07-06T03:38:08;16.00;97.30
10123;DHT22;5101;49.038;8.710;2022-07-06T03:40:33;15.90;97.60
10123;DHT22;5101;49.038;8.710;2022-07-06T03:42:59;15.90;97.60
10123;DHT22;5101;49.038;8.710;2022-07-06T03:45:25;15.90;97.60
10123;DHT22;5101;49.038;8.710;2022-07-06T03:47:50;15.90;97.60
10123;DHT22;5101;49.038;8.710;2022-07-06T03:50:16;15.90;97.70
10123;DHT22;5101;49.038;8.710;2022-07-06T03:52:41;15.90;97.60
10123;DHT22;5101;49.038;8.710;2022-07-06T03:55:10;15.90;97.60
10123;DHT22;5101;49.038;8.710;2022-07-06T03:57:40;15.90;98.10
10123;DHT22;5101;49.038;8.710;2022-07-06T04:00:06;15.90;98.40
10123;DHT22;5101;49.038;8.710;2022-07-06T04:02:32;15.80;98.70
10123;DHT22;5101;49.038;8.710;2022-07-06T04:04:58;15.80;99.20
10123;DHT22;5101;49.038;8.710;2022-07-06T04:07:24;15.80;99.80
10123;DHT22;5101;49.038;8.710;2022-07-06T04:09:50;15.80;99.90
10123;DHT22;5101;49.038;8.710;2022-07-06T04:12:15;15.80;99.90
10123;DHT22;5101;49.038;8.710;2022-07-06T04:14:41;15.80;99.90
10123;DHT22;5101;49.038;8.710;2022-07-06T04:17:06;15.80;99.90
10123;DHT22;5101;49.038;8.710;2022-07-06T04:19:50;15.80;99.90
10123;DHT22;5101;49.038;8.710;2022-07-06T04:22:16;15.70;99.90
10123;DHT22;5101;49.038;8.710;2022-07-06T04:24:42;15.70;99.90
10123;DHT22;5101;49.038;8.710;2022-07-06T04:27:08;15.80;99.90
10123;DHT22;5101;49.038;8.710;2022-07-06T04:29:33;15.70;99.90
10123;DHT22;5101;49.038;8.710;2022-07-06T04:31:59;15.80;99.90
10123;DHT22;5101;49.038;8.710;2022-07-06T04:34:24;15.80;99.90
10123;DHT22;5101;49.038;8.710;2022-07-06T04:36:50;15.80;99.90
10123;DHT22;5101;49.038;8.710;2022-07-06T04:39:15;15.80;99.90
10123;DHT22;5101;49.038;8.710;2022-07-06T04:41:41;15.80;99.90
10123;DHT22;5101;49.038;8.710;2022-07-06T04:44:06;15.90;99.90
10123;DHT22;5101;49.038;8.710;2022-07-06T04:46:32;15.90;99.90
10123;DHT22;5101;49.038;8.710;2022-07-06T04:48:57;15.90;99.90
10123;DHT22;5101;49.038;8.710;2022-07-06T04:51:23;15.90;99.90
10123;DHT22;5101;49.038;8.710;2022-07-06T04:53:48;15.90;99.90
10123;DHT22;5101;49.038;8.710;2022-07-06T04:56:14;16.00;99.90
10123;DHT22;5101;49.038;8.710;2022-07-06T04:58:39;16.00;99.90
10123;DHT22;5101;49.038;8.710;2022-07-06T05:01:05;16.00;99.90
10123;DHT22;5101;49.038;8.710;2022-07-06T05:03:30;16.10;99.90
10123;DHT22;5101;49.038;8.710;2022-07-06T05:05:56;16.20;99.90
10123;DHT22;5101;49.038;8.710;2022-07-06T05:08:22;16.20;99.90
10123;DHT22;5101;49.038;8.710;2022-07-06T05:10:48;16.30;99.90
10123;DHT22;5101;49.038;8.710;2022-07-06T05:13:14;16.40;99.90
10123;DHT22;5101;49.038;8.710;2022-07-06T05:15:39;16.40;99.90
10123;DHT22;5101;49.038;8.710;2022-07-06T05:18:05;16.50;99.90
10123;DHT22;5101;49.038;8.710;2022-07-06T05:20:31;16.60;99.90
10123;DHT22;5101;49.038;8.710;2022-07-06T05:22:56;16.60;99.50
10123;DHT22;5101;49.038;8.710;2022-07-06T05:25:22;16.70;99.10
10123;DHT22;5101;49.038;8.710;2022-07-06T05:27:47;16.80;99.10
10123;DHT22;5101;49.038;8.710;2022-07-06T05:30:13;16.80;98.80
10123;DHT22;5101;49.038;8.710;2022-07-06T05:32:40;16.90;98.50
10123;DHT22;5101;49.038;8.710;2022-07-06T05:35:07;16.90;98.10
10123;DHT22;5101;49.038;8.710;2022-07-06T05:37:33;17.00;97.80
10123;DHT22;5101;49.038;8.710;2022-07-06T05:39:58;17.10;97.60
10123;DHT22;5101;49.038;8.710;2022-07-06T05:42:24;17.20;97.20
10123;DHT22;5101;49.038;8.710;2022-07-06T05:44:49;17.30;97.10
10123;DHT22;5101;49.038;8.710;2022-07-06T05:47:15;17.40;96.60
10123;DHT22;5101;49.038;8.710;2022-07-06T05:49:59;17.40;96.00
10123;DHT22;5101;49.038;8.710;2022-07-06T05:52:44;17.60;95.90
10123;DHT22;5101;49.038;8.710;2022-07-06T05:55:11;17.70;95.40
10123;DHT22;5101;49.038;8.710;2022-07-06T05:57:37;17.80;94.90
10123;DHT22;5101;49.038;8.710;2022-07-06T06:00:05;17.80;94.60
10123;DHT22;5101;49.038;8.710;2022-07-06T06:02:40;17.90;94.40
10123;DHT22;5101;49.038;8.710;2022-07-06T06:05:10;18.10;94.40
10123;DHT22;5101;49.038;8.710;2022-07-06T06:07:37;18.10;94.20
10123;DHT22;5101;49.038;8.710;2022-07-06T06:10:04;18.20;93.90
10123;DHT22;5101;49.038;8.710;2022-07-06T06:12:30;18.30;93.70
10123;DHT22;5101;49.038;8.710;2022-07-06T06:14:56;18.50;93.50
10123;DHT22;5101;49.038;8.710;2022-07-06T06:17:21;18.60;92.80
10123;DHT22;5101;49.038;8.710;2022-07-06T06:19:47;18.80;92.30
10123;DHT22;5101;49.038;8.710;2022-07-06T06:22:13;18.90;91.80
10123;DHT22;5101;49.038;8.710;2022-07-06T06:24:39;19.00;91.10
10123;DHT22;5101;49.038;8.710;2022-07-06T06:27:04;19.10;90.80
10123;DHT22;5101;49.038;8.710;2022-07-06T06:29:30;19.20;90.60
10123;DHT22;5101;49.038;8.710;2022-07-06T06:31:55;19.40;90.30
10123;DHT22;5101;49.038;8.710;2022-07-06T06:34:21;19.50;90.00
10123;DHT22;5101;49.038;8.710;2022-07-06T06:36:46;19.70;89.50
10123;DHT22;5101;49.038;8.710;2022-07-06T06:39:12;19.90;88.60
10123;DHT22;5101;49.038;8.710;2022-07-06T06:41:37;20.00;86.50
10123;DHT22;5101;49.038;8.710;2022-07-06T06:44:03;20.10;85.90
10123;DHT22;5101;49.038;8.710;2022-07-06T06:46:28;20.40;86.70
10123;DHT22;5101;49.038;8.710;2022-07-06T06:48:54;20.60;85.90
10123;DHT22;5101;49.038;8.710;2022-07-06T06:51:20;20.80;85.10
10123;DHT22;5101;49.038;8.710;2022-07-06T06:53:46;21.00;84.10
10123;DHT22;5101;49.038;8.710;2022-07-06T06:56:12;21.10;82.20
10123;DHT22;5101;49.038;8.710;2022-07-06T06:58:38;21.20;81.20
10123;DHT22;5101;49.038;8.710;2022-07-06T07:01:04;21.30;80.70
10123;DHT22;5101;49.038;8.710;2022-07-06T07:03:30;21.40;79.80
10123;DHT22;5101;49.038;8.710;2022-07-06T07:05:56;21.30;78.30
10123;DHT22;5101;49.038;8.710;2022-07-06T07:08:21;21.40;77.90
10123;DHT22;5101;49.038;8.710;2022-07-06T07:10:47;21.60;78.20
10123;DHT22;5101;49.038;8.710;2022-07-06T07:13:12;21.70;78.60
10123;DHT22;5101;49.038;8.710;2022-07-06T07:15:38;21.90;78.00
10123;DHT22;5101;49.038;8.710;2022-07-06T07:18:03;22.00;76.60
10123;DHT22;5101;49.038;8.710;2022-07-06T07:20:29;22.30;75.40
10123;DHT22;5101;49.038;8.710;2022-07-06T07:22:56;22.50;74.90
10123;DHT22;5101;49.038;8.710;2022-07-06T07:25:21;22.90;73.50
10123;DHT22;5101;49.038;8.710;2022-07-06T07:27:47;23.20;72.20
10123;DHT22;5101;49.038;8.710;2022-07-06T07:30:12;23.50;70.90
10123;DHT22;5101;49.038;8.710;2022-07-06T07:32:38;23.70;68.90
10123;DHT22;5101;49.038;8.710;2022-07-06T07:35:06;24.00;67.60
10123;DHT22;5101;49.038;8.710;2022-07-06T07:37:32;24.20;65.20
10123;DHT22;5101;49.038;8.710;2022-07-06T07:39:58;24.30;63.50
10123;DHT22;5101;49.038;8.710;2022-07-06T07:42:24;24.60;62.60
10123;DHT22;5101;49.038;8.710;2022-07-06T07:44:49;24.50;60.70
10123;DHT22;5101;49.038;8.710;2022-07-06T07:47:15;24.60;60.40
10123;DHT22;5101;49.038;8.710;2022-07-06T07:49:41;24.70;59.20
10123;DHT22;5101;49.038;8.710;2022-07-06T07:52:06;25.00;58.20
10123;DHT22;5101;49.038;8.710;2022-07-06T07:54:32;25.40;57.80
10123;DHT22;5101;49.038;8.710;2022-07-06T07:56:57;25.80;56.30
10123;DHT22;5101;49.038;8.710;2022-07-06T07:59:23;26.20;54.60
10123;DHT22;5101;49.038;8.710;2022-07-06T08:01:48;26.30;53.30
10123;DHT22;5101;49.038;8.710;2022-07-06T08:04:14;26.60;53.40
10123;DHT22;5101;49.038;8.710;2022-07-06T08:06:40;26.90;51.90
10123;DHT22;5101;49.038;8.710;2022-07-06T08:09:06;27.30;49.90
10123;DHT22;5101;49.038;8.710;2022-07-06T08:11:33;27.60;48.40
10123;DHT22;5101;49.038;8.710;2022-07-06T08:13:59;27.90;47.30
10123;DHT22;5101;49.038;8.710;2022-07-06T08:16:25;28.30;46.00
10123;DHT22;5101;49.038;8.710;2022-07-06T08:18:50;28.60;44.40
10123;DHT22;5101;49.038;8.710;2022-07-06T08:21:16;28.60;43.40
10123;DHT22;5101;49.038;8.710;2022-07-06T08:23:41;28.70;42.80
10123;DHT22;5101;49.038;8.710;2022-07-06T08:26:07;28.90;42.20
10123;DHT22;5101;49.038;8.710;2022-07-06T08:28:33;28.90;41.60
10123;DHT22;5101;49.038;8.710;2022-07-06T08:30:58;28.80;41.80
10123;DHT22;5101;49.038;8.710;2022-07-06T08:33:24;28.80;41.70
10123;DHT22;5101;49.038;8.710;2022-07-06T08:35:49;29.10;41.30
10123;DHT22;5101;49.038;8.710;2022-07-06T08:38:15;29.30;40.90
10123;DHT22;5101;49.038;8.710;2022-07-06T08:40:41;29.50;40.90
10123;DHT22;5101;49.038;8.710;2022-07-06T08:43:08;29.50;40.50
10123;DHT22;5101;49.038;8.710;2022-07-06T08:45:35;29.50;39.90
10123;DHT22;5101;49.038;8.710;2022-07-06T08:48:04;29.80;39.80
10123;DHT22;5101;49.038;8.710;2022-07-06T08:50:31;29.80;38.90
10123;DHT22;5101;49.038;8.710;2022-07-06T08:52:57;29.30;39.00
10123;DHT22;5101;49.038;8.710;2022-07-06T08:55:24;29.30;38.80
10123;DHT22;5101;49.038;8.710;2022-07-06T08:57:51;29.00;38.90
10123;DHT22;5101;49.038;8.710;2022-07-06T09:00:17;29.00;39.30
10123;DHT22;5101;49.038;8.710;2022-07-06T09:02:43;29.00;39.20
10123;DHT22;5101;49.038;8.710;2022-07-06T09:05:10;29.10;39.70
10123;DHT22;5101;49.038;8.710;2022-07-06T09:07:40;29.40;39.60
10123;DHT22;5101;49.038;8.710;2022-07-06T09:10:07;29.50;39.20
10123;DHT22;5101;49.038;8.710;2022-07-06T09:12:33;29.50;38.80
10123;DHT22;5101;49.038;8.710;2022-07-06T09:14:59;29.50;38.60
10123;DHT22;5101;49.038;8.710;2022-07-06T09:17:27;29.40;38.60
10123;DHT22;5101;49.038;8.710;2022-07-06T09:19:53;29.50;38.40
10123;DHT22;5101;49.038;8.710;2022-07-06T09:22:29;29.50;38.20
10123;DHT22;5101;49.038;8.710;2022-07-06T09:25:14;29.40;38.40
10123;DHT22;5101;49.038;8.710;2022-07-06T09:27:43;29.30;38.30
10123;DHT22;5101;49.038;8.710;2022-07-06T09:30:10;29.10;38.30
10123;DHT22;5101;49.038;8.710;2022-07-06T09:32:56;29.20;38.60
10123;DHT22;5101;49.038;8.710;2022-07-06T09:35:27;29.20;38.20
10123;DHT22;5101;49.038;8.710;2022-07-06T09:38:05;29.20;38.20
10123;DHT22;5101;49.038;8.710;2022-07-06T09:40:33;29.30;38.00
10123;DHT22;5101;49.038;8.710;2022-07-06T09:43:19;29.30;38.00
10123;DHT22;5101;49.038;8.710;2022-07-06T09:45:46;29.20;38.50
10123;DHT22;5101;49.038;8.710;2022-07-06T09:48:20;29.00;38.80
10123;DHT22;5101;49.038;8.710;2022-07-06T09:50:51;29.00;39.50
10123;DHT22;5101;49.038;8.710;2022-07-06T09:53:19;29.00;39.20
10123;DHT22;5101;49.038;8.710;2022-07-06T09:55:49;28.90;38.80
10123;DHT22;5101;49.038;8.710;2022-07-06T09:58:15;28.70;39.00
10123;DHT22;5101;49.038;8.710;2022-07-06T10:00:45;28.80;38.90
10123;DHT22;5101;49.038;8.710;2022-07-06T10:03:12;28.90;39.60
10123;DHT22;5101;49.038;8.710;2022-07-06T10:05:39;28.70;39.00
10123;DHT22;5101;49.038;8.710;2022-07-06T10:08:07;28.50;38.80
10123;DHT22;5101;49.038;8.710;2022-07-06T10:10:35;28.50;39.30
10123;DHT22;5101;49.038;8.710;2022-07-06T10:13:01;28.70;39.30
10123;DHT22;5101;49.038;8.710;2022-07-06T10:15:29;28.60;38.50
10123;DHT22;5101;49.038;8.710;2022-07-06T10:17:58;28.60;38.50
10123;DHT22;5101;49.038;8.710;2022-07-06T10:20:27;28.10;38.70
10123;DHT22;5101;49.038;8.710;2022-07-06T10:22:54;27.90;39.30
10123;DHT22;5101;49.038;8.710;2022-07-06T10:25:23;28.20;39.50
10123;DHT22;5101;49.038;8.710;2022-07-06T10:27:48;27.90;39.40
10123;DHT22;5101;49.038;8.710;2022-07-06T10:30:15;27.80;39.90
10123;DHT22;5101;49.038;8.710;2022-07-06T10:32:42;27.90;40.00
10123;DHT22;5101;49.038;8.710;2022-07-06T10:35:09;28.00;39.60
10123;DHT22;5101;49.038;8.710;2022-07-06T10:37:34;28.00;40.00
10123;DHT22;5101;49.038;8.710;2022-07-06T10:40:00;27.90;40.50
10123;DHT22;5101;49.038;8.710;2022-07-06T10:45:19;28.10;40.50
10123;DHT22;5101;49.038;8.710;2022-07-06T10:47:46;28.20;40.60
10123;DHT22;5101;49.038;8.710;2022-07-06T10:50:11;28.40;39.90
10123;DHT22;5101;49.038;8.710;2022-07-06T10:52:51;28.50;39.10
10123;DHT22;5101;49.038;8.710;2022-07-06T10:55:33;28.60;38.40
10123;DHT22;5101;49.038;8.710;2022-07-06T10:58:00;28.60;37.70
10123;DHT22;5101;49.038;8.710;2022-07-06T11:00:26;28.40;37.60
10123;DHT22;5101;49.038;8.710;2022-07-06T11:02:51;28.40;37.70
10123;DHT22;5101;49.038;8.710;2022-07-06T11:05:42;28.00;37.70
10123;DHT22;5101;49.038;8.710;2022-07-06T11:08:11;27.80;38.30
10123;DHT22;5101;49.038;8.710;2022-07-06T11:10:49;27.90;38.50
10123;DHT22;5101;49.038;8.710;2022-07-06T11:13:27;28.00;38.70
10123;DHT22;5101;49.038;8.710;2022-07-06T11:16:01;28.20;38.70
10123;DHT22;5101;49.038;8.710;2022-07-06T11:18:28;28.40;38.80
10123;DHT22;5101;49.038;8.710;2022-07-06T11:23:42;27.80;37.50
10123;DHT22;5101;49.038;8.710;2022-07-06T11:26:09;27.50;38.00
10123;DHT22;5101;49.038;8.710;2022-07-06T11:28:36;27.50;38.00
10123;DHT22;5101;49.038;8.710;2022-07-06T11:31:02;27.60;38.50
10123;DHT22;5101;49.038;8.710;2022-07-06T11:33:31;27.70;39.20
10123;DHT22;5101;49.038;8.710;2022-07-06T11:36:17;27.60;39.10
10123;DHT22;5101;49.038;8.710;2022-07-06T11:38:44;27.60;38.90
10123;DHT22;5101;49.038;8.710;2022-07-06T11:41:10;27.50;38.50
10123;DHT22;5101;49.038;8.710;2022-07-06T11:43:37;27.20;38.60
10123;DHT22;5101;49.038;8.710;2022-07-06T11:46:18;27.10;39.40
10123;DHT22;5101;49.038;8.710;2022-07-06T11:48:48;27.00;39.80
10123;DHT22;5101;49.038;8.710;2022-07-06T11:51:14;27.00;39.70
10123;DHT22;5101;49.038;8.710;2022-07-06T11:53:47;27.00;39.80
10123;DHT22;5101;49.038;8.710;2022-07-06T11:56:15;27.10;41.20
10123;DHT22;5101;49.038;8.710;2022-07-06T11:58:41;27.00;41.10
10123;DHT22;5101;49.038;8.710;2022-07-06T12:01:10;26.90;40.90
10123;DHT22;5101;49.038;8.710;2022-07-06T12:03:36;26.90;41.00
10123;DHT22;5101;49.038;8.710;2022-07-06T12:06:03;27.00;40.80
10123;DHT22;5101;49.038;8.710;2022-07-06T12:08:29;26.90;40.60
10123;DHT22;5101;49.038;8.710;2022-07-06T12:10:54;26.80;40.10
10123;DHT22;5101;49.038;8.710;2022-07-06T12:13:20;26.70;40.70
10123;DHT22;5101;49.038;8.710;2022-07-06T12:15:46;26.70;40.80
10123;DHT22;5101;49.038;8.710;2022-07-06T12:18:12;26.70;40.60
10123;DHT22;5101;49.038;8.710;2022-07-06T12:20:37;26.60;40.50
10123;DHT22;5101;49.038;8.710;2022-07-06T12:23:07;26.50;40.90
10123;DHT22;5101;49.038;8.710;2022-07-06T12:25:34;26.50;40.90
10123;DHT22;5101;49.038;8.710;2022-07-06T12:28:00;26.60;40.80
10123;DHT22;5101;49.038;8.710;2022-07-06T12:30:25;26.50;40.70
10123;DHT22;5101;49.038;8.710;2022-07-06T12:33:13;26.50;40.40
10123;DHT22;5101;49.038;8.710;2022-07-06T12:35:41;26.60;41.90
10123;DHT22;5101;49.038;8.710;2022-07-06T12:38:08;26.60;41.30
10123;DHT22;5101;49.038;8.710;2022-07-06T12:40:36;26.60;40.90
10123;DHT22;5101;49.038;8.710;2022-07-06T12:43:03;26.50;40.90
10123;DHT22;5101;49.038;8.710;2022-07-06T12:45:29;26.50;41.30
10123;DHT22;5101;49.038;8.710;2022-07-06T12:47:59;26.70;40.60
10123;DHT22;5101;49.038;8.710;2022-07-06T12:53:00;26.40;40.20
10123;DHT22;5101;49.038;8.710;2022-07-06T12:55:27;26.30;40.30
10123;DHT22;5101;49.038;8.710;2022-07-06T12:57:53;26.40;40.40
10123;DHT22;5101;49.038;8.710;2022-07-06T13:00:19;26.20;40.00
10123;DHT22;5101;49.038;8.710;2022-07-06T13:02:48;26.20;40.10
10123;DHT22;5101;49.038;8.710;2022-07-06T13:05:15;26.30;39.90
10123;DHT22;5101;49.038;8.710;2022-07-06T13:07:46;26.30;40.20
10123;DHT22;5101;49.038;8.710;2022-07-06T13:10:13;26.40;40.50
10123;DHT22;5101;49.038;8.710;2022-07-06T13:12:39;26.40;40.50
10123;DHT22;5101;49.038;8.710;2022-07-06T13:15:06;26.50;41.20
10123;DHT22;5101;49.038;8.710;2022-07-06T13:17:32;26.60;41.60
10123;DHT22;5101;49.038;8.710;2022-07-06T13:19:58;26.50;40.80
10123;DHT22;5101;49.038;8.710;2022-07-06T13:22:24;26.40;40.50
10123;DHT22;5101;49.038;8.710;2022-07-06T13:24:50;26.20;40.20
10123;DHT22;5101;49.038;8.710;2022-07-06T13:27:15;26.10;40.30
10123;DHT22;5101;49.038;8.710;2022-07-06T13:29:41;25.80;40.30
10123;DHT22;5101;49.038;8.710;2022-07-06T13:32:07;25.80;41.20
10123;DHT22;5101;49.038;8.710;2022-07-06T13:34:33;25.70;41.90
10123;DHT22;5101;49.038;8.710;2022-07-06T13:37:01;25.80;41.90
10123;DHT22;5101;49.038;8.710;2022-07-06T13:39:26;25.90;42.70
10123;DHT22;5101;49.038;8.710;2022-07-06T13:41:53;25.90;42.30
10123;DHT22;5101;49.038;8.710;2022-07-06T13:44:19;25.80;42.00
10123;DHT22;5101;49.038;8.710;2022-07-06T13:46:44;25.80;41.80
10123;DHT22;5101;49.038;8.710;2022-07-06T13:49:10;25.90;42.00
10123;DHT22;5101;49.038;8.710;2022-07-06T13:51:36;26.00;42.20
10123;DHT22;5101;49.038;8.710;2022-07-06T13:54:02;26.00;42.20
10123;DHT22;5101;49.038;8.710;2022-07-06T13:56:28;26.00;41.60
10123;DHT22;5101;49.038;8.710;2022-07-06T13:58:54;26.10;41.30
10123;DHT22;5101;49.038;8.710;2022-07-06T14:01:20;26.20;42.30
10123;DHT22;5101;49.038;8.710;2022-07-06T14:03:45;26.10;41.60
10123;DHT22;5101;49.038;8.710;2022-07-06T14:06:11;26.20;41.20
10123;DHT22;5101;49.038;8.710;2022-07-06T14:08:37;26.20;40.80
10123;DHT22;5101;49.038;8.710;2022-07-06T14:11:04;26.30;41.00
10123;DHT22;5101;49.038;8.710;2022-07-06T14:13:31;26.30;40.80
10123;DHT22;5101;49.038;8.710;2022-07-06T14:15:57;26.30;41.10
10123;DHT22;5101;49.038;8.710;2022-07-06T14:18:22;26.40;40.40
10123;DHT22;5101;49.038;8.710;2022-07-06T14:20:49;26.40;40.30
10123;DHT22;5101;49.038;8.710;2022-07-06T14:23:15;26.30;39.80
10123;DHT22;5101;49.038;8.710;2022-07-06T14:25:41;26.30;39.40
10123;DHT22;5101;49.038;8.710;2022-07-06T14:28:07;26.40;39.30
10123;DHT22;5101;49.038;8.710;2022-07-06T14:30:34;26.40;39.20
10123;DHT22;5101;49.038;8.710;2022-07-06T14:33:03;26.50;39.30
10123;DHT22;5101;49.038;8.710;2022-07-06T14:35:33;26.50;39.50
10123;DHT22;5101;49.038;8.710;2022-07-06T14:37:59;26.40;39.20
10123;DHT22;5101;49.038;8.710;2022-07-06T14:40:24;26.30;38.90
10123;DHT22;5101;49.038;8.710;2022-07-06T14:42:50;26.30;39.10
10123;DHT22;5101;49.038;8.710;2022-07-06T14:45:15;26.30;38.80
10123;DHT22;5101;49.038;8.710;2022-07-06T14:47:41;26.30;38.20
10123;DHT22;5101;49.038;8.710;2022-07-06T14:50:06;26.30;38.10
10123;DHT22;5101;49.038;8.710;2022-07-06T14:52:32;26.20;37.80
10123;DHT22;5101;49.038;8.710;2022-07-06T14:54:58;26.20;37.60
10123;DHT22;5101;49.038;8.710;2022-07-06T14:57:25;26.20;37.60
10123;DHT22;5101;49.038;8.710;2022-07-06T14:59:50;25.90;37.20
10123;DHT22;5101;49.038;8.710;2022-07-06T15:02:16;25.70;36.80
10123;DHT22;5101;49.038;8.710;2022-07-06T15:04:41;25.60;36.60
10123;DHT22;5101;49.038;8.710;2022-07-06T15:07:07;25.50;36.50
10123;DHT22;5101;49.038;8.710;2022-07-06T15:09:33;25.40;36.70
10123;DHT22;5101;49.038;8.710;2022-07-06T15:11:59;25.30;37.00
10123;DHT22;5101;49.038;8.710;2022-07-06T15:14:24;25.20;37.30
10123;DHT22;5101;49.038;8.710;2022-07-06T15:16:52;25.10;37.70
10123;DHT22;5101;49.038;8.710;2022-07-06T15:19:17;25.10;38.00
10123;DHT22;5101;49.038;8.710;2022-07-06T15:21:43;25.00;38.10
10123;DHT22;5101;49.038;8.710;2022-07-06T15:24:09;25.00;38.10
10123;DHT22;5101;49.038;8.710;2022-07-06T15:26:35;24.90;38.60
10123;DHT22;5101;49.038;8.710;2022-07-06T15:29:00;24.80;38.90
10123;DHT22;5101;49.038;8.710;2022-07-06T15:31:26;24.70;38.60
10123;DHT22;5101;49.038;8.710;2022-07-06T15:33:51;24.70;38.30
10123;DHT22;5101;49.038;8.710;2022-07-06T15:36:17;24.70;38.30
10123;DHT22;5101;49.038;8.710;2022-07-06T15:38:43;24.70;38.20
10123;DHT22;5101;49.038;8.710;2022-07-06T15:41:08;24.60;38.10
10123;DHT22;5101;49.038;8.710;2022-07-06T15:43:34;24.60;38.30
10123;DHT22;5101;49.038;8.710;2022-07-06T15:46:01;24.60;38.00
10123;DHT22;5101;49.038;8.710;2022-07-06T15:48:28;24.50;37.80
10123;DHT22;5101;49.038;8.710;2022-07-06T15:50:54;24.50;38.00